Etusivu
METAR-TAF:

METAR-TAF

Lentoasemat :

Antananarivo, Madagaskar

Leveyspiiri: 18-48S, Pituuspiiri: 047-29E, korkeus merenpinnasta: 1279 m

Tämänhetkinen sää

Tämä raportti tehtiin 56 minuuttia sitten, kello 07.30 UTC
Tuuli 4 kn etelästä, vaihdellen idän ja lounaan välillä
Lämpötila 27°C
Kosteus 39%
Ilmanpaine 1019 hPa
Näkyvyys 10 km tai enemmän
Muutamia pilviä 2000 ft:n korkeudessa

METAR: FMMI 210730Z 17004KT 090V230 9999 FEW020 27/12 Q1019 NOSIG

Aika: 11:26 (08:26 UTC)

Sääennuste

Tämä raportti tehtiin 3 tuntia ja 26 minuuttia sitten, kello 05.00 UTC
Ennuste voimassa 21. päivästä klo 06 UTC - 22. päivään klo 12 UTC
Tuuli 5 kn eri suunnista
Näkyvyys 10 km tai enemmän
Hajanaisia pilviä 2000 ft:n korkeudessa
Todennäköisyys 30%
22. päivästä klo 00 UTC - 22. päivään klo 06 UTC
Näkyvyys: 0400 m
Hajonneita pilviä 400 ft:n korkeudessa
sumua,

TAF: FMMI 210500Z 2106/2212 VRB05KT 9999 SCT020 PROB30 2200/2206 0400 FG BKN004

Säähavainnot ja -ennusteet yli 4000 lentoasemalta (METAR- ja TAF-raportit).

Käytössä olevat sääasemat on merkitty karttaan keltaisilla ja punaisilla pisteillä.

Aseta hiiri pisteen päälle nähdäksesi sääaseman nimen.

Klikkaa sitten nähdäksesi säähavainnot ja -ennusteet.

Kartan vaihtaminen: klikkaa mustalla rastilla varustettuja vihreitä pisteitä, niin voit zoomata sisään; viivalla varustettua vihreää pistettä, niin voit zoomata ulos tai vihreitä nuolia, niin pääset viereisille kartoille.


METAR-TAF: